sensor_id;sensor_type;location;lat;lon;timestamp;pressure;altitude;pressure_sealevel;temperature;humidity
50368;BME280;36281;34.132;-118.018;2023-05-22T00:00:14;99859.34;;;26.77;47.85
50368;BME280;36281;34.132;-118.018;2023-05-22T00:02:44;99866.69;;;26.68;47.89
50368;BME280;36281;34.132;-118.018;2023-05-22T00:05:13;99864.75;;;26.60;48.43
50368;BME280;36281;34.132;-118.018;2023-05-22T00:07:45;99867.47;;;26.60;48.44
50368;BME280;36281;34.132;-118.018;2023-05-22T00:10:14;99875.28;;;26.53;48.39
50368;BME280;36281;34.132;-118.018;2023-05-22T00:12:43;99868.44;;;26.47;48.35
50368;BME280;36281;34.132;-118.018;2023-05-22T00:15:13;99861.69;;;26.44;48.64
50368;BME280;36281;34.132;-118.018;2023-05-22T00:17:42;99862.63;;;26.40;48.94
50368;BME280;36281;34.132;-118.018;2023-05-22T00:20:12;99865.63;;;26.29;48.91
50368;BME280;36281;34.132;-118.018;2023-05-22T00:22:41;99866.28;;;26.26;49.33
50368;BME280;36281;34.132;-118.018;2023-05-22T00:25:12;99865.31;;;26.22;48.88
50368;BME280;36281;34.132;-118.018;2023-05-22T00:27:43;99862.41;;;26.19;48.88
50368;BME280;36281;34.132;-118.018;2023-05-22T00:30:12;99860.66;;;26.14;49.07
50368;BME280;36281;34.132;-118.018;2023-05-22T00:32:42;99859.19;;;26.08;48.92
50368;BME280;36281;34.132;-118.018;2023-05-22T00:35:11;99855.47;;;25.95;48.78
50368;BME280;36281;34.132;-118.018;2023-05-22T00:37:40;99848.13;;;25.87;48.97
50368;BME280;36281;34.132;-118.018;2023-05-22T00:40:12;99850.66;;;25.84;49.69
50368;BME280;36281;34.132;-118.018;2023-05-22T00:42:43;99854.31;;;25.79;49.57
50368;BME280;36281;34.132;-118.018;2023-05-22T00:45:13;99855.75;;;25.76;49.84
50368;BME280;36281;34.132;-118.018;2023-05-22T00:47:42;99849.63;;;25.71;49.61
50368;BME280;36281;34.132;-118.018;2023-05-22T00:50:11;99846.75;;;25.67;49.76
50368;BME280;36281;34.132;-118.018;2023-05-22T00:52:42;99845.56;;;25.60;50.21
50368;BME280;36281;34.132;-118.018;2023-05-22T00:55:15;99846.34;;;25.51;50.11
50368;BME280;36281;34.132;-118.018;2023-05-22T00:57:44;99850.59;;;25.44;50.56
50368;BME280;36281;34.132;-118.018;2023-05-22T01:00:14;99840.34;;;25.32;50.47
50368;BME280;36281;34.132;-118.018;2023-05-22T01:02:44;99847.31;;;25.24;50.83
50368;BME280;36281;34.132;-118.018;2023-05-22T01:05:14;99844.06;;;25.14;50.97
50368;BME280;36281;34.132;-118.018;2023-05-22T01:07:45;99843.38;;;25.08;51.38
50368;BME280;36281;34.132;-118.018;2023-05-22T01:10:16;99853.81;;;25.01;51.57
50368;BME280;36281;34.132;-118.018;2023-05-22T01:12:54;99852.97;;;24.92;51.76
50368;BME280;36281;34.132;-118.018;2023-05-22T01:15:32;99851.28;;;24.82;52.13
50368;BME280;36281;34.132;-118.018;2023-05-22T01:18:14;99850.31;;;24.78;52.29
50368;BME280;36281;34.132;-118.018;2023-05-22T01:20:53;99849.41;;;24.69;52.50
50368;BME280;36281;34.132;-118.018;2023-05-22T01:23:55;99848.09;;;24.66;52.71
50368;BME280;36281;34.132;-118.018;2023-05-22T01:26:50;99847.16;;;24.62;52.46
50368;BME280;36281;34.132;-118.018;2023-05-22T01:29:34;99836.34;;;24.48;52.72
50368;BME280;36281;34.132;-118.018;2023-05-22T01:32:13;99834.06;;;24.42;53.15
50368;BME280;36281;34.132;-118.018;2023-05-22T01:34:44;99850.31;;;24.42;52.99
50368;BME280;36281;34.132;-118.018;2023-05-22T01:37:16;99838.34;;;24.29;53.11
50368;BME280;36281;34.132;-118.018;2023-05-22T01:39:46;99847.28;;;24.30;53.50
50368;BME280;36281;34.132;-118.018;2023-05-22T01:42:15;99839.06;;;24.21;53.74
50368;BME280;36281;34.132;-118.018;2023-05-22T01:44:45;99848.59;;;24.18;53.95
50368;BME280;36281;34.132;-118.018;2023-05-22T01:47:17;99850.31;;;24.14;54.16
50368;BME280;36281;34.132;-118.018;2023-05-22T01:49:46;99844.00;;;24.05;53.88
50368;BME280;36281;34.132;-118.018;2023-05-22T01:52:21;99852.72;;;24.02;54.39
50368;BME280;36281;34.132;-118.018;2023-05-22T01:54:56;99846.91;;;23.95;54.36
50368;BME280;36281;34.132;-118.018;2023-05-22T01:57:27;99860.13;;;23.96;54.97
50368;BME280;36281;34.132;-118.018;2023-05-22T02:00:02;99861.84;;;23.92;54.65
50368;BME280;36281;34.132;-118.018;2023-05-22T02:02:42;99862.75;;;23.88;54.99
50368;BME280;36281;34.132;-118.018;2023-05-22T02:05:15;99876.53;;;23.86;55.06
50368;BME280;36281;34.132;-118.018;2023-05-22T02:07:47;99889.88;;;23.83;55.52
50368;BME280;36281;34.132;-118.018;2023-05-22T02:10:17;99899.16;;;23.77;55.11
50368;BME280;36281;34.132;-118.018;2023-05-22T02:12:48;99894.16;;;23.70;55.09
50368;BME280;36281;34.132;-118.018;2023-05-22T02:15:18;99902.84;;;23.67;55.60
50368;BME280;36281;34.132;-118.018;2023-05-22T02:17:49;99911.31;;;23.60;55.29
50368;BME280;36281;34.132;-118.018;2023-05-22T02:20:20;99907.41;;;23.53;56.13
50368;BME280;36281;34.132;-118.018;2023-05-22T02:22:49;99915.00;;;23.51;55.86
50368;BME280;36281;34.132;-118.018;2023-05-22T02:25:18;99919.19;;;23.43;56.22
50368;BME280;36281;34.132;-118.018;2023-05-22T02:27:48;99919.88;;;23.35;56.12
50368;BME280;36281;34.132;-118.018;2023-05-22T02:30:17;99925.66;;;23.28;56.45
50368;BME280;36281;34.132;-118.018;2023-05-22T02:32:48;99929.50;;;23.22;56.76
50368;BME280;36281;34.132;-118.018;2023-05-22T02:35:17;99922.09;;;23.14;56.92
50368;BME280;36281;34.132;-118.018;2023-05-22T02:37:46;99935.75;;;23.04;57.08
50368;BME280;36281;34.132;-118.018;2023-05-22T02:40:15;99934.22;;;22.98;57.70
50368;BME280;36281;34.132;-118.018;2023-05-22T02:42:44;99936.47;;;22.90;57.80
50368;BME280;36281;34.132;-118.018;2023-05-22T02:45:13;99930.31;;;22.85;58.13
50368;BME280;36281;34.132;-118.018;2023-05-22T02:47:42;99934.19;;;22.79;58.27
50368;BME280;36281;34.132;-118.018;2023-05-22T02:50:13;99934.75;;;22.76;58.57
50368;BME280;36281;34.132;-118.018;2023-05-22T02:52:42;99939.97;;;22.67;58.69
50368;BME280;36281;34.132;-118.018;2023-05-22T02:55:12;99942.03;;;22.56;58.84
50368;BME280;36281;34.132;-118.018;2023-05-22T02:57:41;99932.81;;;22.38;59.23
50368;BME280;36281;34.132;-118.018;2023-05-22T03:00:13;99952.44;;;22.44;59.52
50368;BME280;36281;34.132;-118.018;2023-05-22T03:02:42;99959.56;;;22.35;59.92
50368;BME280;36281;34.132;-118.018;2023-05-22T03:05:13;99955.56;;;22.27;59.93
50368;BME280;36281;34.132;-118.018;2023-05-22T03:07:45;99963.22;;;22.20;60.18
50368;BME280;36281;34.132;-118.018;2023-05-22T03:10:16;99973.25;;;22.14;60.68
50368;BME280;36281;34.132;-118.018;2023-05-22T03:12:45;99980.84;;;22.07;60.93
50368;BME280;36281;34.132;-118.018;2023-05-22T03:15:14;99971.25;;;21.96;61.19
50368;BME280;36281;34.132;-118.018;2023-05-22T03:17:43;99969.41;;;21.91;61.24
50368;BME280;36281;34.132;-118.018;2023-05-22T03:20:14;99983.22;;;21.85;61.31
50368;BME280;36281;34.132;-118.018;2023-05-22T03:22:44;99982.72;;;21.78;61.76
50368;BME280;36281;34.132;-118.018;2023-05-22T03:25:16;99996.59;;;21.66;61.94
50368;BME280;36281;34.132;-118.018;2023-05-22T03:27:45;99982.97;;;21.47;62.25
50368;BME280;36281;34.132;-118.018;2023-05-22T03:30:14;99997.84;;;21.45;62.74
50368;BME280;36281;34.132;-118.018;2023-05-22T03:32:44;99998.13;;;21.38;62.80
50368;BME280;36281;34.132;-118.018;2023-05-22T03:35:15;99999.78;;;21.34;63.02
50368;BME280;36281;34.132;-118.018;2023-05-22T03:37:47;100010.03;;;21.27;63.47
50368;BME280;36281;34.132;-118.018;2023-05-22T03:40:16;100007.94;;;21.19;63.56
50368;BME280;36281;34.132;-118.018;2023-05-22T03:42:45;100019.81;;;21.12;63.75
50368;BME280;36281;34.132;-118.018;2023-05-22T03:45:14;100023.91;;;21.05;64.26
50368;BME280;36281;34.132;-118.018;2023-05-22T03:47:43;100028.22;;;21.01;64.97
50368;BME280;36281;34.132;-118.018;2023-05-22T03:50:14;100023.94;;;20.95;65.53
50368;BME280;36281;34.132;-118.018;2023-05-22T03:52:43;100028.81;;;20.87;65.93
50368;BME280;36281;34.132;-118.018;2023-05-22T03:55:13;100027.25;;;20.76;66.43
50368;BME280;36281;34.132;-118.018;2023-05-22T03:57:42;100034.00;;;20.69;66.84
50368;BME280;36281;34.132;-118.018;2023-05-22T04:00:12;100032.69;;;20.61;67.16
50368;BME280;36281;34.132;-118.018;2023-05-22T04:02:41;100029.72;;;20.52;67.48
50368;BME280;36281;34.132;-118.018;2023-05-22T04:05:14;100042.94;;;20.49;67.83
50368;BME280;36281;34.132;-118.018;2023-05-22T04:07:43;100052.06;;;20.43;68.31
50368;BME280;36281;34.132;-118.018;2023-05-22T04:10:12;100053.44;;;20.30;68.79
50368;BME280;36281;34.132;-118.018;2023-05-22T04:12:41;100050.19;;;20.23;68.83
50368;BME280;36281;34.132;-118.018;2023-05-22T04:15:10;100050.78;;;20.14;69.38
50368;BME280;36281;34.132;-118.018;2023-05-22T04:17:40;100055.59;;;20.07;69.45
50368;BME280;36281;34.132;-118.018;2023-05-22T04:20:09;100057.75;;;19.95;70.12
50368;BME280;36281;34.132;-118.018;2023-05-22T04:22:40;100059.38;;;19.86;70.41
50368;BME280;36281;34.132;-118.018;2023-05-22T04:25:09;100058.81;;;19.79;70.77
50368;BME280;36281;34.132;-118.018;2023-05-22T04:27:39;100065.25;;;19.68;71.12
50368;BME280;36281;34.132;-118.018;2023-05-22T04:30:08;100066.81;;;19.58;71.77
50368;BME280;36281;34.132;-118.018;2023-05-22T04:32:38;100064.66;;;19.50;72.13
50368;BME280;36281;34.132;-118.018;2023-05-22T04:35:08;100071.38;;;19.48;72.34
50368;BME280;36281;34.132;-118.018;2023-05-22T04:37:39;100074.84;;;19.43;72.83
50368;BME280;36281;34.132;-118.018;2023-05-22T04:40:13;100077.53;;;19.38;73.08
50368;BME280;36281;34.132;-118.018;2023-05-22T04:42:42;100082.06;;;19.32;73.33
50368;BME280;36281;34.132;-118.018;2023-05-22T04:45:12;100078.28;;;19.28;73.38
50368;BME280;36281;34.132;-118.018;2023-05-22T04:47:41;100080.72;;;19.25;73.63
50368;BME280;36281;34.132;-118.018;2023-05-22T04:50:10;100074.50;;;19.19;73.92
50368;BME280;36281;34.132;-118.018;2023-05-22T04:52:43;100071.56;;;19.16;74.36
50368;BME280;36281;34.132;-118.018;2023-05-22T04:55:12;100071.00;;;19.14;74.50
50368;BME280;36281;34.132;-118.018;2023-05-22T04:57:41;100074.75;;;19.13;74.89
50368;BME280;36281;34.132;-118.018;2023-05-22T05:00:15;100075.81;;;19.11;74.91
50368;BME280;36281;34.132;-118.018;2023-05-22T05:02:44;100074.47;;;19.09;75.08
50368;BME280;36281;34.132;-118.018;2023-05-22T05:05:14;100082.00;;;19.12;75.18
50368;BME280;36281;34.132;-118.018;2023-05-22T05:07:46;100080.94;;;19.13;74.98
50368;BME280;36281;34.132;-118.018;2023-05-22T05:10:16;100087.66;;;19.16;75.42
50368;BME280;36281;34.132;-118.018;2023-05-22T05:12:46;100088.47;;;19.16;75.01
50368;BME280;36281;34.132;-118.018;2023-05-22T05:15:15;100081.72;;;19.14;75.11
50368;BME280;36281;34.132;-118.018;2023-05-22T05:17:44;100088.97;;;19.13;75.37
50368;BME280;36281;34.132;-118.018;2023-05-22T05:20:13;100077.72;;;19.11;75.36
50368;BME280;36281;34.132;-118.018;2023-05-22T05:22:44;100087.09;;;19.14;75.30
50368;BME280;36281;34.132;-118.018;2023-05-22T05:25:13;100081.50;;;19.15;75.42
50368;BME280;36281;34.132;-118.018;2023-05-22T05:27:43;100074.47;;;19.14;75.21
50368;BME280;36281;34.132;-118.018;2023-05-22T05:30:12;100068.06;;;19.15;75.57
50368;BME280;36281;34.132;-118.018;2023-05-22T05:32:41;100068.06;;;19.15;75.67
50368;BME280;36281;34.132;-118.018;2023-05-22T05:35:10;100057.03;;;19.11;75.46
50368;BME280;36281;34.132;-118.018;2023-05-22T05:37:39;100069.38;;;19.13;75.48
50368;BME280;36281;34.132;-118.018;2023-05-22T05:40:11;100062.41;;;19.11;75.50
50368;BME280;36281;34.132;-118.018;2023-05-22T05:42:41;100031.19;;;18.85;75.80
50368;BME280;36281;34.132;-118.018;2023-05-22T05:45:11;100067.78;;;19.11;76.04
50368;BME280;36281;34.132;-118.018;2023-05-22T05:47:40;100072.34;;;19.11;75.90
50368;BME280;36281;34.132;-118.018;2023-05-22T05:50:10;100068.56;;;19.07;75.83
50368;BME280;36281;34.132;-118.018;2023-05-22T05:52:42;100072.84;;;19.08;76.09
50368;BME280;36281;34.132;-118.018;2023-05-22T05:55:13;100066.69;;;19.07;76.20
50368;BME280;36281;34.132;-118.018;2023-05-22T05:57:42;100058.63;;;19.07;76.50
50368;BME280;36281;34.132;-118.018;2023-05-22T06:00:12;100064.56;;;19.09;76.27
50368;BME280;36281;34.132;-118.018;2023-05-22T06:02:41;100060.78;;;19.05;76.28
50368;BME280;36281;34.132;-118.018;2023-05-22T06:05:11;100057.03;;;19.06;76.40
50368;BME280;36281;34.132;-118.018;2023-05-22T06:07:40;100053.53;;;19.06;76.42
50368;BME280;36281;34.132;-118.018;2023-05-22T06:10:12;100051.13;;;19.09;76.34
50368;BME280;36281;34.132;-118.018;2023-05-22T06:12:41;100046.81;;;19.08;76.36
50368;BME280;36281;34.132;-118.018;2023-05-22T06:15:10;100047.63;;;19.09;76.27
50368;BME280;36281;34.132;-118.018;2023-05-22T06:17:41;100054.06;;;19.08;76.11
50368;BME280;36281;34.132;-118.018;2023-05-22T06:20:10;100050.56;;;19.07;76.51
50368;BME280;36281;34.132;-118.018;2023-05-22T06:22:41;100046.28;;;19.06;76.42
50368;BME280;36281;34.132;-118.018;2023-05-22T06:25:12;100045.72;;;19.04;76.55
50368;BME280;36281;34.132;-118.018;2023-05-22T06:27:41;100053.78;;;19.04;76.57
50368;BME280;36281;34.132;-118.018;2023-05-22T06:30:11;100041.69;;;19.02;76.81
50368;BME280;36281;34.132;-118.018;2023-05-22T06:32:46;100042.22;;;18.99;76.70
50368;BME280;36281;34.132;-118.018;2023-05-22T06:35:16;100038.19;;;18.96;76.90
50368;BME280;36281;34.132;-118.018;2023-05-22T06:37:45;99970.13;;;18.55;77.01
50368;BME280;36281;34.132;-118.018;2023-05-22T06:40:16;100042.50;;;19.02;77.06
50368;BME280;36281;34.132;-118.018;2023-05-22T06:42:45;100043.88;;;19.05;77.08
50368;BME280;36281;34.132;-118.018;2023-05-22T06:45:14;100041.19;;;19.05;76.82
50368;BME280;36281;34.132;-118.018;2023-05-22T06:47:45;100042.22;;;19.04;76.86
50368;BME280;36281;34.132;-118.018;2023-05-22T06:50:14;100037.66;;;18.99;76.75
50368;BME280;36281;34.132;-118.018;2023-05-22T06:52:44;100047.88;;;19.02;76.69
50368;BME280;36281;34.132;-118.018;2023-05-22T06:55:15;100049.25;;;19.05;77.08
50368;BME280;36281;34.132;-118.018;2023-05-22T06:57:44;100043.59;;;19.06;76.97
50368;BME280;36281;34.132;-118.018;2023-05-22T07:00:14;100045.22;;;19.07;76.96
50368;BME280;36281;34.132;-118.018;2023-05-22T07:02:46;100044.38;;;19.02;76.95
50368;BME280;36281;34.132;-118.018;2023-05-22T07:05:15;100044.66;;;19.00;77.08
50368;BME280;36281;34.132;-118.018;2023-05-22T07:07:45;100046.25;;;19.01;77.11
50368;BME280;36281;34.132;-118.018;2023-05-22T07:10:15;100048.94;;;19.01;77.08
50368;BME280;36281;34.132;-118.018;2023-05-22T07:12:44;100046.25;;;18.96;77.12
50368;BME280;36281;34.132;-118.018;2023-05-22T07:15:14;100051.88;;;18.95;77.11
50368;BME280;36281;34.132;-118.018;2023-05-22T07:17:43;100053.97;;;18.88;77.26
50368;BME280;36281;34.132;-118.018;2023-05-22T07:20:12;100048.59;;;18.82;77.58
50368;BME280;36281;34.132;-118.018;2023-05-22T07:22:43;100054.75;;;18.83;78.00
50368;BME280;36281;34.132;-118.018;2023-05-22T07:25:12;100049.66;;;18.81;78.03
50368;BME280;36281;34.132;-118.018;2023-05-22T07:27:43;100059.31;;;18.82;78.02
50368;BME280;36281;34.132;-118.018;2023-05-22T07:30:12;100052.34;;;18.81;78.13
50368;BME280;36281;34.132;-118.018;2023-05-22T07:32:41;100053.16;;;18.82;78.28
50368;BME280;36281;34.132;-118.018;2023-05-22T07:35:11;100051.81;;;18.84;78.11
50368;BME280;36281;34.132;-118.018;2023-05-22T07:37:40;100046.22;;;18.86;77.98
50368;BME280;36281;34.132;-118.018;2023-05-22T07:40:09;100043.22;;;18.82;78.01
50368;BME280;36281;34.132;-118.018;2023-05-22T07:42:39;100042.97;;;18.84;78.30
50368;BME280;36281;34.132;-118.018;2023-05-22T07:45:11;100042.16;;;18.83;77.98
50368;BME280;36281;34.132;-118.018;2023-05-22T07:47:40;100041.34;;;18.83;78.22
50368;BME280;36281;34.132;-118.018;2023-05-22T07:50:09;100049.41;;;18.83;78.07
50368;BME280;36281;34.132;-118.018;2023-05-22T07:52:38;100040.28;;;18.84;78.26
50368;BME280;36281;34.132;-118.018;2023-05-22T07:55:08;100041.34;;;18.83;78.36
50368;BME280;36281;34.132;-118.018;2023-05-22T07:57:38;100036.25;;;18.81;78.29
50368;BME280;36281;34.132;-118.018;2023-05-22T08:00:08;100030.09;;;18.81;78.34
50368;BME280;36281;34.132;-118.018;2023-05-22T08:02:42;100034.34;;;18.77;78.35
50368;BME280;36281;34.132;-118.018;2023-05-22T08:05:12;100030.88;;;18.81;78.30
50368;BME280;36281;34.132;-118.018;2023-05-22T08:07:41;100031.69;;;18.82;78.40
50368;BME280;36281;34.132;-118.018;2023-05-22T08:10:14;100034.34;;;18.77;78.64
50368;BME280;36281;34.132;-118.018;2023-05-22T08:12:44;100026.81;;;18.74;78.46
50368;BME280;36281;34.132;-118.018;2023-05-22T08:15:13;100016.06;;;18.69;78.81
50368;BME280;36281;34.132;-118.018;2023-05-22T08:17:43;100021.44;;;18.69;79.02
50368;BME280;36281;34.132;-118.018;2023-05-22T08:20:13;100015.03;;;18.75;79.16
50368;BME280;36281;34.132;-118.018;2023-05-22T08:22:42;100017.97;;;18.73;79.06
50368;BME280;36281;34.132;-118.018;2023-05-22T08:25:11;100013.94;;;18.71;78.88
50368;BME280;36281;34.132;-118.018;2023-05-22T08:27:40;100011.78;;;18.73;79.02
50368;BME280;36281;34.132;-118.018;2023-05-22T08:30:10;100011.78;;;18.73;79.03
50368;BME280;36281;34.132;-118.018;2023-05-22T08:32:39;100010.19;;;18.72;78.83
50368;BME280;36281;34.132;-118.018;2023-05-22T08:35:10;99999.97;;;18.69;78.82
50368;BME280;36281;34.132;-118.018;2023-05-22T08:37:39;100005.63;;;18.72;78.71
50368;BME280;36281;34.132;-118.018;2023-05-22T08:40:11;99998.31;;;18.68;78.73
50368;BME280;36281;34.132;-118.018;2023-05-22T08:42:41;100005.31;;;18.69;79.04
50368;BME280;36281;34.132;-118.018;2023-05-22T08:45:10;100002.88;;;18.67;79.32
50368;BME280;36281;34.132;-118.018;2023-05-22T08:47:40;100009.31;;;18.66;79.49
50368;BME280;36281;34.132;-118.018;2023-05-22T08:50:14;99998.31;;;18.68;79.66
50368;BME280;36281;34.132;-118.018;2023-05-22T08:52:48;100000.47;;;18.66;79.48
50368;BME280;36281;34.132;-118.018;2023-05-22T08:55:19;99999.66;;;18.65;79.31
50368;BME280;36281;34.132;-118.018;2023-05-22T08:57:49;99998.84;;;18.65;79.21
50368;BME280;36281;34.132;-118.018;2023-05-22T09:00:20;99991.88;;;18.64;79.21
50368;BME280;36281;34.132;-118.018;2023-05-22T09:02:49;99988.09;;;18.65;79.28
50368;BME280;36281;34.132;-118.018;2023-05-22T09:05:21;99991.88;;;18.64;79.32
50368;BME280;36281;34.132;-118.018;2023-05-22T09:07:55;99987.84;;;18.61;79.54
50368;BME280;36281;34.132;-118.018;2023-05-22T09:10:35;100001.53;;;18.65;79.48
50368;BME280;36281;34.132;-118.018;2023-05-22T09:13:06;99992.09;;;18.57;79.65
50368;BME280;36281;34.132;-118.018;2023-05-22T09:15:38;99994.00;;;18.62;79.87
50368;BME280;36281;34.132;-118.018;2023-05-22T09:18:08;99988.09;;;18.59;79.84
50368;BME280;36281;34.132;-118.018;2023-05-22T09:20:39;99987.56;;;18.57;79.74
50368;BME280;36281;34.132;-118.018;2023-05-22T09:23:12;99985.94;;;18.56;80.10
50368;BME280;36281;34.132;-118.018;2023-05-22T09:25:54;99980.31;;;18.58;80.06
50368;BME280;36281;34.132;-118.018;2023-05-22T09:28:24;99988.06;;;18.54;80.22
50368;BME280;36281;34.132;-118.018;2023-05-22T09:30:54;99985.91;;;18.51;80.10
50368;BME280;36281;34.132;-118.018;2023-05-22T09:33:23;99987.53;;;18.52;80.37
50368;BME280;36281;34.132;-118.018;2023-05-22T09:35:54;99981.63;;;18.50;80.23
50368;BME280;36281;34.132;-118.018;2023-05-22T09:38:26;99977.31;;;18.49;80.43
50368;BME280;36281;34.132;-118.018;2023-05-22T09:40:56;99978.38;;;18.48;80.35
50368;BME280;36281;34.132;-118.018;2023-05-22T09:43:25;99973.28;;;18.47;80.50
50368;BME280;36281;34.132;-118.018;2023-05-22T09:46:00;99969.25;;;18.44;80.58
50368;BME280;36281;34.132;-118.018;2023-05-22T09:48:33;99967.63;;;18.43;80.73
50368;BME280;36281;34.132;-118.018;2023-05-22T09:51:05;99942.13;;;18.36;80.86
50368;BME280;36281;34.132;-118.018;2023-05-22T09:53:36;99956.06;;;18.38;80.80
50368;BME280;36281;34.132;-118.018;2023-05-22T09:56:12;99953.94;;;18.40;81.25
50368;BME280;36281;34.132;-118.018;2023-05-22T09:58:54;99947.53;;;18.41;81.07
50368;BME280;36281;34.132;-118.018;2023-05-22T10:01:23;99949.66;;;18.44;81.02
50368;BME280;36281;34.132;-118.018;2023-05-22T10:03:53;99949.97;;;18.47;80.81
50368;BME280;36281;34.132;-118.018;2023-05-22T10:06:26;99951.56;;;18.48;80.68
50368;BME280;36281;34.132;-118.018;2023-05-22T10:09:01;99949.41;;;18.45;80.83
50368;BME280;36281;34.132;-118.018;2023-05-22T10:11:33;99948.06;;;18.43;80.82
50368;BME280;36281;34.132;-118.018;2023-05-22T10:14:03;99943.50;;;18.43;80.96
50368;BME280;36281;34.132;-118.018;2023-05-22T10:16:34;99942.69;;;18.43;80.96
50368;BME280;36281;34.132;-118.018;2023-05-22T10:19:06;99933.56;;;18.39;81.04
50368;BME280;36281;34.132;-118.018;2023-05-22T10:21:38;99933.81;;;18.37;81.21
50368;BME280;36281;34.132;-118.018;2023-05-22T10:24:09;99928.16;;;18.33;81.23
50368;BME280;36281;34.132;-118.018;2023-05-22T10:26:38;99928.97;;;18.34;81.22
50368;BME280;36281;34.132;-118.018;2023-05-22T10:29:10;99926.28;;;18.34;81.40
50368;BME280;36281;34.132;-118.018;2023-05-22T10:31:44;99931.66;;;18.34;81.31
50368;BME280;36281;34.132;-118.018;2023-05-22T10:34:16;99926.56;;;18.32;81.46
50368;BME280;36281;34.132;-118.018;2023-05-22T10:37:04;99928.44;;;18.32;81.47
50368;BME280;36281;34.132;-118.018;2023-05-22T10:39:53;99930.84;;;18.33;81.39
50368;BME280;36281;34.132;-118.018;2023-05-22T10:42:29;99924.94;;;18.31;81.45
50368;BME280;36281;34.132;-118.018;2023-05-22T10:45:00;99922.00;;;18.33;81.60
50368;BME280;36281;34.132;-118.018;2023-05-22T10:47:32;99926.06;;;18.36;81.70
50368;BME280;36281;34.132;-118.018;2023-05-22T10:50:07;99917.19;;;18.35;81.67
50368;BME280;36281;34.132;-118.018;2023-05-22T10:52:38;99914.53;;;18.35;81.83
50368;BME280;36281;34.132;-118.018;2023-05-22T10:55:09;99915.31;;;18.36;81.70
50368;BME280;36281;34.132;-118.018;2023-05-22T10:57:38;99909.97;;;18.36;81.45
50368;BME280;36281;34.132;-118.018;2023-05-22T11:00:10;99908.31;;;18.34;81.27
50368;BME280;36281;34.132;-118.018;2023-05-22T11:02:41;99912.66;;;18.36;81.49
50368;BME280;36281;34.132;-118.018;2023-05-22T11:05:32;99913.44;;;18.36;81.46
50368;BME280;36281;34.132;-118.018;2023-05-22T11:08:38;99916.38;;;18.40;81.39
50368;BME280;36281;34.132;-118.018;2023-05-22T11:11:13;99910.50;;;18.38;81.39
50368;BME280;36281;34.132;-118.018;2023-05-22T11:13:42;99910.50;;;18.38;81.35
50368;BME280;36281;34.132;-118.018;2023-05-22T11:16:12;99908.31;;;18.34;81.36
50368;BME280;36281;34.132;-118.018;2023-05-22T11:18:44;99906.47;;;18.35;81.45
50368;BME280;36281;34.132;-118.018;2023-05-22T11:21:13;99909.66;;;18.32;81.44
50368;BME280;36281;34.132;-118.018;2023-05-22T11:23:44;99904.00;;;18.28;81.87
50368;BME280;36281;34.132;-118.018;2023-05-22T11:26:21;99894.88;;;18.24;81.90
50368;BME280;36281;34.132;-118.018;2023-05-22T11:28:55;99896.50;;;18.25;82.04
50368;BME280;36281;34.132;-118.018;2023-05-22T11:31:24;99904.84;;;18.34;82.00
50368;BME280;36281;34.132;-118.018;2023-05-22T11:33:54;99903.78;;;18.35;81.92
50368;BME280;36281;34.132;-118.018;2023-05-22T11:36:23;99895.75;;;18.35;81.93
50368;BME280;36281;34.132;-118.018;2023-05-22T11:38:58;99901.91;;;18.36;81.89
50368;BME280;36281;34.132;-118.018;2023-05-22T11:41:31;99893.06;;;18.35;81.75
50368;BME280;36281;34.132;-118.018;2023-05-22T11:44:01;99896.56;;;18.36;81.64
50368;BME280;36281;34.132;-118.018;2023-05-22T11:46:30;99892.25;;;18.34;81.89
50368;BME280;36281;34.132;-118.018;2023-05-22T11:48:59;99887.72;;;18.35;81.87
50368;BME280;36281;34.132;-118.018;2023-05-22T11:51:28;99890.38;;;18.35;82.13
50368;BME280;36281;34.132;-118.018;2023-05-22T11:53:59;99892.25;;;18.34;81.95
50368;BME280;36281;34.132;-118.018;2023-05-22T11:56:29;99885.28;;;18.33;82.23
50368;BME280;36281;34.132;-118.018;2023-05-22T11:58:58;99880.72;;;18.34;82.12
50368;BME280;36281;34.132;-118.018;2023-05-22T12:01:27;99885.03;;;18.35;82.17
50368;BME280;36281;34.132;-118.018;2023-05-22T12:03:56;99888.50;;;18.36;82.15
50368;BME280;36281;34.132;-118.018;2023-05-22T12:06:26;99882.88;;;18.37;82.08
50368;BME280;36281;34.132;-118.018;2023-05-22T12:08:55;99883.97;;;18.36;82.39
50368;BME280;36281;34.132;-118.018;2023-05-22T12:11:27;99878.59;;;18.36;82.25
50368;BME280;36281;34.132;-118.018;2023-05-22T12:14:03;99879.09;;;18.33;82.10
50368;BME280;36281;34.132;-118.018;2023-05-22T12:16:34;99879.66;;;18.35;82.22
50368;BME280;36281;34.132;-118.018;2023-05-22T12:19:05;99870.78;;;18.34;82.21
50368;BME280;36281;34.132;-118.018;2023-05-22T12:21:34;99875.34;;;18.34;82.30
50368;BME280;36281;34.132;-118.018;2023-05-22T12:24:04;99874.53;;;18.33;82.47
50368;BME280;36281;34.132;-118.018;2023-05-22T12:26:35;99881.50;;;18.34;82.58
50368;BME280;36281;34.132;-118.018;2023-05-22T12:29:05;99874.53;;;18.33;82.52
50368;BME280;36281;34.132;-118.018;2023-05-22T12:31:34;99887.16;;;18.33;82.31
50368;BME280;36281;34.132;-118.018;2023-05-22T12:34:06;99880.69;;;18.29;82.55
50368;BME280;36281;34.132;-118.018;2023-05-22T12:36:38;99883.13;;;18.30;82.29
50368;BME280;36281;34.132;-118.018;2023-05-22T12:39:08;99840.41;;;18.08;82.32
50368;BME280;36281;34.132;-118.018;2023-05-22T12:41:39;99876.97;;;18.30;82.31
50368;BME280;36281;34.132;-118.018;2023-05-22T12:44:08;99882.31;;;18.30;82.46